sensor_id;sensor_type;location;lat;lon;timestamp;pressure;altitude;pressure_sealevel;temperature;humidity
63281;BME280;49406;51.044;3.766;2023-01-26T00:01:40;102614.29;;;0.56;100.00
63281;BME280;49406;51.044;3.766;2023-01-26T00:04:16;102610.25;;;0.57;100.00
63281;BME280;49406;51.044;3.766;2023-01-26T00:06:51;102605.49;;;0.58;100.00
63281;BME280;49406;51.044;3.766;2023-01-26T00:09:25;102603.73;;;0.60;100.00
63281;BME280;49406;51.044;3.766;2023-01-26T00:12:00;102598.33;;;0.61;100.00
63281;BME280;49406;51.044;3.766;2023-01-26T00:14:34;102593.84;;;0.63;100.00
63281;BME280;49406;51.044;3.766;2023-01-26T00:17:23;102594.80;;;0.63;100.00
63281;BME280;49406;51.044;3.766;2023-01-26T00:20:00;102593.48;;;0.63;100.00
63281;BME280;49406;51.044;3.766;2023-01-26T00:22:33;102589.61;;;0.64;100.00
63281;BME280;49406;51.044;3.766;2023-01-26T00:25:09;102589.42;;;0.66;100.00
63281;BME280;49406;51.044;3.766;2023-01-26T00:27:43;102586.41;;;0.67;100.00
63281;BME280;49406;51.044;3.766;2023-01-26T00:30:18;102587.47;;;0.68;100.00
63281;BME280;49406;51.044;3.766;2023-01-26T00:32:53;102586.92;;;0.68;100.00
63281;BME280;49406;51.044;3.766;2023-01-26T00:35:29;102583.98;;;0.67;100.00
63281;BME280;49406;51.044;3.766;2023-01-26T00:38:04;102586.38;;;0.67;100.00
63281;BME280;49406;51.044;3.766;2023-01-26T00:40:39;102584.68;;;0.67;100.00
63281;BME280;49406;51.044;3.766;2023-01-26T00:43:13;102581.48;;;0.68;100.00
63281;BME280;49406;51.044;3.766;2023-01-26T00:45:48;102582.36;;;0.68;100.00
63281;BME280;49406;51.044;3.766;2023-01-26T00:48:22;102583.60;;;0.69;100.00
63281;BME280;49406;51.044;3.766;2023-01-26T00:50:57;102580.63;;;0.70;100.00
63281;BME280;49406;51.044;3.766;2023-01-26T00:53:31;102576.69;;;0.71;100.00
63281;BME280;49406;51.044;3.766;2023-01-26T00:56:07;102572.98;;;0.72;100.00
63281;BME280;49406;51.044;3.766;2023-01-26T00:58:41;102573.31;;;0.71;100.00
63281;BME280;49406;51.044;3.766;2023-01-26T01:01:15;102571.50;;;0.73;100.00
63281;BME280;49406;51.044;3.766;2023-01-26T01:03:50;102567.36;;;0.73;100.00
63281;BME280;49406;51.044;3.766;2023-01-26T01:06:24;102566.91;;;0.73;100.00
63281;BME280;49406;51.044;3.766;2023-01-26T01:08:59;102565.16;;;0.73;100.00
63281;BME280;49406;51.044;3.766;2023-01-26T01:11:33;102565.56;;;0.74;100.00
63281;BME280;49406;51.044;3.766;2023-01-26T01:14:08;102564.87;;;0.74;100.00
63281;BME280;49406;51.044;3.766;2023-01-26T01:16:43;102563.50;;;0.74;100.00
63281;BME280;49406;51.044;3.766;2023-01-26T01:19:18;102560.79;;;0.74;100.00
63281;BME280;49406;51.044;3.766;2023-01-26T01:21:52;102554.19;;;0.73;100.00
63281;BME280;49406;51.044;3.766;2023-01-26T01:24:27;102550.57;;;0.74;100.00
63281;BME280;49406;51.044;3.766;2023-01-26T01:27:01;102547.22;;;0.73;100.00
63281;BME280;49406;51.044;3.766;2023-01-26T01:29:36;102546.16;;;0.73;100.00
63281;BME280;49406;51.044;3.766;2023-01-26T01:32:11;102542.23;;;0.73;100.00
63281;BME280;49406;51.044;3.766;2023-01-26T01:34:46;102544.66;;;0.73;100.00
63281;BME280;49406;51.044;3.766;2023-01-26T01:37:21;102546.92;;;0.73;100.00
63281;BME280;49406;51.044;3.766;2023-01-26T01:39:55;102544.36;;;0.73;100.00
63281;BME280;49406;51.044;3.766;2023-01-26T01:42:31;102541.43;;;0.73;100.00
63281;BME280;49406;51.044;3.766;2023-01-26T01:45:36;102536.23;;;0.73;100.00
63281;BME280;49406;51.044;3.766;2023-01-26T01:48:20;102534.20;;;0.73;100.00
63281;BME280;49406;51.044;3.766;2023-01-26T01:51:01;102530.11;;;0.74;100.00
63281;BME280;49406;51.044;3.766;2023-01-26T01:53:40;102527.52;;;0.74;100.00
63281;BME280;49406;51.044;3.766;2023-01-26T01:56:20;102527.04;;;0.74;100.00
63281;BME280;49406;51.044;3.766;2023-01-26T01:58:58;102529.70;;;0.75;100.00
63281;BME280;49406;51.044;3.766;2023-01-26T02:01:33;102533.58;;;0.77;100.00
63281;BME280;49406;51.044;3.766;2023-01-26T02:04:08;102531.13;;;0.79;100.00
63281;BME280;49406;51.044;3.766;2023-01-26T02:06:47;102532.16;;;0.81;100.00
63281;BME280;49406;51.044;3.766;2023-01-26T02:09:24;102532.45;;;0.82;100.00
63281;BME280;49406;51.044;3.766;2023-01-26T02:12:18;102532.99;;;0.83;100.00
63281;BME280;49406;51.044;3.766;2023-01-26T02:14:54;102533.04;;;0.83;100.00
63281;BME280;49406;51.044;3.766;2023-01-26T02:17:29;102533.32;;;0.84;100.00
63281;BME280;49406;51.044;3.766;2023-01-26T02:20:10;102534.61;;;0.85;100.00
63281;BME280;49406;51.044;3.766;2023-01-26T02:22:57;102530.85;;;0.86;100.00
63281;BME280;49406;51.044;3.766;2023-01-26T02:25:37;102533.36;;;0.87;100.00
63281;BME280;49406;51.044;3.766;2023-01-26T02:28:13;102532.09;;;0.88;100.00
63281;BME280;49406;51.044;3.766;2023-01-26T02:30:48;102531.12;;;0.90;100.00
63281;BME280;49406;51.044;3.766;2023-01-26T02:33:25;102534.84;;;0.92;100.00
63281;BME280;49406;51.044;3.766;2023-01-26T02:36:00;102533.05;;;0.93;100.00
63281;BME280;49406;51.044;3.766;2023-01-26T02:38:41;102536.80;;;0.95;100.00
63281;BME280;49406;51.044;3.766;2023-01-26T02:41:17;102536.20;;;0.96;100.00
63281;BME280;49406;51.044;3.766;2023-01-26T02:44:13;102537.50;;;0.97;100.00
63281;BME280;49406;51.044;3.766;2023-01-26T02:46:47;102540.17;;;0.99;100.00
63281;BME280;49406;51.044;3.766;2023-01-26T02:49:22;102537.14;;;1.00;100.00
63281;BME280;49406;51.044;3.766;2023-01-26T02:52:14;102536.70;;;1.00;100.00
63281;BME280;49406;51.044;3.766;2023-01-26T02:54:49;102536.09;;;1.01;100.00
63281;BME280;49406;51.044;3.766;2023-01-26T02:57:42;102536.86;;;1.02;100.00
63281;BME280;49406;51.044;3.766;2023-01-26T03:00:19;102536.41;;;1.03;100.00
63281;BME280;49406;51.044;3.766;2023-01-26T03:02:56;102535.22;;;1.03;100.00
63281;BME280;49406;51.044;3.766;2023-01-26T03:05:31;102535.86;;;1.05;100.00
63281;BME280;49406;51.044;3.766;2023-01-26T03:08:06;102537.23;;;1.05;100.00
63281;BME280;49406;51.044;3.766;2023-01-26T03:10:39;102536.09;;;1.06;100.00
63281;BME280;49406;51.044;3.766;2023-01-26T03:13:13;102536.11;;;1.06;100.00
63281;BME280;49406;51.044;3.766;2023-01-26T03:15:47;102535.48;;;1.07;100.00
63281;BME280;49406;51.044;3.766;2023-01-26T03:18:27;102528.77;;;1.07;100.00
63281;BME280;49406;51.044;3.766;2023-01-26T03:21:19;102533.67;;;1.08;100.00
63281;BME280;49406;51.044;3.766;2023-01-26T03:24:12;102526.98;;;1.08;100.00
63281;BME280;49406;51.044;3.766;2023-01-26T03:27:04;102526.75;;;1.10;100.00
63281;BME280;49406;51.044;3.766;2023-01-26T03:29:57;102535.36;;;1.10;100.00
63281;BME280;49406;51.044;3.766;2023-01-26T03:32:32;102528.51;;;1.10;100.00
63281;BME280;49406;51.044;3.766;2023-01-26T03:35:08;102524.05;;;1.11;100.00
63281;BME280;49406;51.044;3.766;2023-01-26T03:37:47;102531.71;;;1.12;100.00
63281;BME280;49406;51.044;3.766;2023-01-26T03:40:26;102521.71;;;1.12;100.00
63281;BME280;49406;51.044;3.766;2023-01-26T03:43:18;102520.88;;;1.12;100.00
63281;BME280;49406;51.044;3.766;2023-01-26T03:46:10;102523.85;;;1.11;100.00
63281;BME280;49406;51.044;3.766;2023-01-26T03:49:02;102513.73;;;1.11;100.00
63281;BME280;49406;51.044;3.766;2023-01-26T03:51:54;102515.97;;;1.11;100.00
63281;BME280;49406;51.044;3.766;2023-01-26T03:54:45;102511.92;;;1.10;100.00
63281;BME280;49406;51.044;3.766;2023-01-26T03:57:38;102516.62;;;1.10;100.00
63281;BME280;49406;51.044;3.766;2023-01-26T04:00:14;102514.89;;;1.11;100.00
63281;BME280;49406;51.044;3.766;2023-01-26T04:02:48;102517.48;;;1.10;100.00
63281;BME280;49406;51.044;3.766;2023-01-26T04:05:40;102511.52;;;1.12;100.00
63281;BME280;49406;51.044;3.766;2023-01-26T04:08:32;102510.73;;;1.13;100.00
63281;BME280;49406;51.044;3.766;2023-01-26T04:11:06;102511.98;;;1.13;100.00
63281;BME280;49406;51.044;3.766;2023-01-26T04:13:41;102508.55;;;1.13;100.00
63281;BME280;49406;51.044;3.766;2023-01-26T04:16:33;102506.44;;;1.13;100.00
63281;BME280;49406;51.044;3.766;2023-01-26T04:19:25;102507.02;;;1.14;100.00
63281;BME280;49406;51.044;3.766;2023-01-26T04:22:17;102510.97;;;1.13;100.00
63281;BME280;49406;51.044;3.766;2023-01-26T04:24:51;102514.08;;;1.14;100.00
63281;BME280;49406;51.044;3.766;2023-01-26T04:27:26;102509.67;;;1.14;100.00
63281;BME280;49406;51.044;3.766;2023-01-26T04:30:00;102518.02;;;1.16;100.00
63281;BME280;49406;51.044;3.766;2023-01-26T04:32:35;102518.06;;;1.16;100.00
63281;BME280;49406;51.044;3.766;2023-01-26T04:35:10;102514.32;;;1.17;100.00
63281;BME280;49406;51.044;3.766;2023-01-26T04:37:46;102516.73;;;1.19;100.00
63281;BME280;49406;51.044;3.766;2023-01-26T04:40:20;102516.27;;;1.19;100.00
63281;BME280;49406;51.044;3.766;2023-01-26T04:42:54;102515.52;;;1.21;100.00
63281;BME280;49406;51.044;3.766;2023-01-26T04:45:29;102515.86;;;1.21;100.00
63281;BME280;49406;51.044;3.766;2023-01-26T04:48:04;102513.25;;;1.21;100.00
63281;BME280;49406;51.044;3.766;2023-01-26T04:50:38;102510.54;;;1.22;100.00
63281;BME280;49406;51.044;3.766;2023-01-26T04:53:12;102506.89;;;1.21;100.00
63281;BME280;49406;51.044;3.766;2023-01-26T04:55:47;102501.76;;;1.21;100.00
63281;BME280;49406;51.044;3.766;2023-01-26T04:58:21;102495.77;;;1.22;100.00
63281;BME280;49406;51.044;3.766;2023-01-26T05:00:56;102495.85;;;1.23;100.00
63281;BME280;49406;51.044;3.766;2023-01-26T05:03:32;102495.02;;;1.24;100.00
63281;BME280;49406;51.044;3.766;2023-01-26T05:06:07;102494.80;;;1.23;100.00
63281;BME280;49406;51.044;3.766;2023-01-26T05:08:42;102496.52;;;1.23;100.00
63281;BME280;49406;51.044;3.766;2023-01-26T05:11:16;102495.06;;;1.24;100.00
63281;BME280;49406;51.044;3.766;2023-01-26T05:13:50;102494.91;;;1.25;100.00
63281;BME280;49406;51.044;3.766;2023-01-26T05:16:25;102496.02;;;1.24;100.00
63281;BME280;49406;51.044;3.766;2023-01-26T05:18:59;102493.47;;;1.24;100.00
63281;BME280;49406;51.044;3.766;2023-01-26T05:21:34;102492.80;;;1.24;100.00
63281;BME280;49406;51.044;3.766;2023-01-26T05:24:09;102491.27;;;1.24;100.00
63281;BME280;49406;51.044;3.766;2023-01-26T05:26:42;102492.31;;;1.25;100.00
63281;BME280;49406;51.044;3.766;2023-01-26T05:29:17;102491.27;;;1.24;100.00
63281;BME280;49406;51.044;3.766;2023-01-26T05:31:51;102492.63;;;1.24;100.00
63281;BME280;49406;51.044;3.766;2023-01-26T05:34:25;102492.98;;;1.24;100.00
63281;BME280;49406;51.044;3.766;2023-01-26T05:37:00;102496.83;;;1.25;100.00
63281;BME280;49406;51.044;3.766;2023-01-26T05:39:34;102496.17;;;1.26;100.00
63281;BME280;49406;51.044;3.766;2023-01-26T05:42:09;102499.16;;;1.26;100.00
63281;BME280;49406;51.044;3.766;2023-01-26T05:44:44;102499.19;;;1.27;100.00
63281;BME280;49406;51.044;3.766;2023-01-26T05:47:19;102500.33;;;1.28;100.00
63281;BME280;49406;51.044;3.766;2023-01-26T05:49:53;102503.02;;;1.30;100.00
63281;BME280;49406;51.044;3.766;2023-01-26T05:52:28;102505.36;;;1.31;100.00
63281;BME280;49406;51.044;3.766;2023-01-26T05:55:02;102509.39;;;1.32;100.00
63281;BME280;49406;51.044;3.766;2023-01-26T05:57:37;102507.21;;;1.33;100.00
63281;BME280;49406;51.044;3.766;2023-01-26T06:00:13;102510.92;;;1.34;100.00
63281;BME280;49406;51.044;3.766;2023-01-26T06:02:48;102508.84;;;1.36;100.00
63281;BME280;49406;51.044;3.766;2023-01-26T06:05:22;102513.41;;;1.37;100.00
63281;BME280;49406;51.044;3.766;2023-01-26T06:07:57;102521.16;;;1.40;100.00
63281;BME280;49406;51.044;3.766;2023-01-26T06:10:31;102524.03;;;1.41;100.00
63281;BME280;49406;51.044;3.766;2023-01-26T06:13:06;102527.90;;;1.42;100.00
63281;BME280;49406;51.044;3.766;2023-01-26T06:15:40;102529.28;;;1.42;100.00
63281;BME280;49406;51.044;3.766;2023-01-26T06:18:14;102529.71;;;1.43;100.00
63281;BME280;49406;51.044;3.766;2023-01-26T06:20:49;102535.17;;;1.45;100.00
63281;BME280;49406;51.044;3.766;2023-01-26T06:23:23;102538.44;;;1.47;100.00
63281;BME280;49406;51.044;3.766;2023-01-26T06:26:00;102540.99;;;1.49;100.00
63281;BME280;49406;51.044;3.766;2023-01-26T06:28:34;102541.83;;;1.49;100.00
63281;BME280;49406;51.044;3.766;2023-01-26T06:31:09;102538.17;;;1.48;100.00
63281;BME280;49406;51.044;3.766;2023-01-26T06:33:44;102543.50;;;1.51;100.00
63281;BME280;49406;51.044;3.766;2023-01-26T06:36:18;102548.70;;;1.54;100.00
63281;BME280;49406;51.044;3.766;2023-01-26T06:38:52;102549.55;;;1.56;100.00
63281;BME280;49406;51.044;3.766;2023-01-26T06:41:25;102551.74;;;1.58;100.00
63281;BME280;49406;51.044;3.766;2023-01-26T06:44:00;102552.42;;;1.60;100.00
63281;BME280;49406;51.044;3.766;2023-01-26T06:46:34;102549.14;;;1.63;100.00
63281;BME280;49406;51.044;3.766;2023-01-26T06:49:09;102550.65;;;1.64;100.00
63281;BME280;49406;51.044;3.766;2023-01-26T06:51:56;102556.08;;;1.68;100.00
63281;BME280;49406;51.044;3.766;2023-01-26T06:54:31;102563.41;;;1.69;100.00
63281;BME280;49406;51.044;3.766;2023-01-26T06:57:06;102559.20;;;1.70;100.00
63281;BME280;49406;51.044;3.766;2023-01-26T06:59:41;102560.17;;;1.72;100.00
63281;BME280;49406;51.044;3.766;2023-01-26T07:02:18;102556.14;;;1.73;100.00
63281;BME280;49406;51.044;3.766;2023-01-26T07:04:53;102558.00;;;1.75;100.00
63281;BME280;49406;51.044;3.766;2023-01-26T07:07:28;102559.16;;;1.77;100.00
63281;BME280;49406;51.044;3.766;2023-01-26T07:10:02;102564.73;;;1.80;100.00
63281;BME280;49406;51.044;3.766;2023-01-26T07:12:43;102566.34;;;1.83;100.00
63281;BME280;49406;51.044;3.766;2023-01-26T07:15:18;102567.34;;;1.88;100.00
63281;BME280;49406;51.044;3.766;2023-01-26T07:17:52;102571.37;;;1.91;100.00
63281;BME280;49406;51.044;3.766;2023-01-26T07:20:27;102574.08;;;1.95;100.00
63281;BME280;49406;51.044;3.766;2023-01-26T07:23:01;102571.92;;;1.99;100.00
63281;BME280;49406;51.044;3.766;2023-01-26T07:25:36;102565.17;;;2.03;100.00
63281;BME280;49406;51.044;3.766;2023-01-26T07:28:10;102565.09;;;2.07;100.00
63281;BME280;49406;51.044;3.766;2023-01-26T07:30:43;102570.35;;;2.11;100.00
63281;BME280;49406;51.044;3.766;2023-01-26T07:33:18;102572.81;;;2.14;100.00
63281;BME280;49406;51.044;3.766;2023-01-26T07:35:54;102579.98;;;2.18;100.00
63281;BME280;49406;51.044;3.766;2023-01-26T07:38:29;102586.61;;;2.21;100.00
63281;BME280;49406;51.044;3.766;2023-01-26T07:41:08;102590.27;;;2.24;100.00
63281;BME280;49406;51.044;3.766;2023-01-26T07:43:43;102592.54;;;2.27;100.00
63281;BME280;49406;51.044;3.766;2023-01-26T07:46:17;102594.25;;;2.29;100.00
63281;BME280;49406;51.044;3.766;2023-01-26T07:48:52;102596.93;;;2.33;100.00
63281;BME280;49406;51.044;3.766;2023-01-26T07:51:27;102595.12;;;2.36;100.00
63281;BME280;49406;51.044;3.766;2023-01-26T07:54:01;102600.20;;;2.40;100.00
63281;BME280;49406;51.044;3.766;2023-01-26T07:56:35;102602.41;;;2.45;100.00
63281;BME280;49406;51.044;3.766;2023-01-26T07:59:11;102606.09;;;2.51;100.00
63281;BME280;49406;51.044;3.766;2023-01-26T08:01:46;102607.90;;;2.57;100.00
63281;BME280;49406;51.044;3.766;2023-01-26T08:04:21;102604.05;;;2.61;100.00
63281;BME280;49406;51.044;3.766;2023-01-26T08:06:56;102606.68;;;2.67;100.00
63281;BME280;49406;51.044;3.766;2023-01-26T08:09:30;102608.83;;;2.73;100.00
63281;BME280;49406;51.044;3.766;2023-01-26T08:12:05;102611.27;;;2.79;100.00
63281;BME280;49406;51.044;3.766;2023-01-26T08:14:40;102615.84;;;2.85;100.00
63281;BME280;49406;51.044;3.766;2023-01-26T08:17:14;102617.90;;;2.89;100.00
63281;BME280;49406;51.044;3.766;2023-01-26T08:19:50;102620.16;;;2.95;100.00
63281;BME280;49406;51.044;3.766;2023-01-26T08:22:24;102618.04;;;2.99;100.00
63281;BME280;49406;51.044;3.766;2023-01-26T08:24:59;102623.48;;;3.05;100.00
63281;BME280;49406;51.044;3.766;2023-01-26T08:27:33;102622.34;;;3.14;100.00
63281;BME280;49406;51.044;3.766;2023-01-26T08:30:10;102627.52;;;3.25;100.00
63281;BME280;49406;51.044;3.766;2023-01-26T08:32:44;102631.32;;;3.35;100.00
63281;BME280;49406;51.044;3.766;2023-01-26T08:35:18;102633.98;;;3.49;100.00
63281;BME280;49406;51.044;3.766;2023-01-26T08:37:53;102637.39;;;3.64;100.00
63281;BME280;49406;51.044;3.766;2023-01-26T08:40:27;102638.16;;;3.76;100.00
63281;BME280;49406;51.044;3.766;2023-01-26T08:43:03;102635.30;;;3.88;100.00
63281;BME280;49406;51.044;3.766;2023-01-26T08:45:37;102635.52;;;4.00;100.00
63281;BME280;49406;51.044;3.766;2023-01-26T08:48:12;102635.93;;;4.09;100.00
63281;BME280;49406;51.044;3.766;2023-01-26T08:50:46;102636.21;;;4.19;100.00
63281;BME280;49406;51.044;3.766;2023-01-26T08:53:20;102639.81;;;4.27;100.00
63281;BME280;49406;51.044;3.766;2023-01-26T08:55:55;102642.65;;;4.34;100.00
63281;BME280;49406;51.044;3.766;2023-01-26T08:58:29;102643.50;;;4.41;100.00
63281;BME280;49406;51.044;3.766;2023-01-26T09:01:07;102641.88;;;4.49;100.00
63281;BME280;49406;51.044;3.766;2023-01-26T09:03:42;102645.50;;;4.57;100.00
63281;BME280;49406;51.044;3.766;2023-01-26T09:06:16;102644.73;;;4.64;100.00
63281;BME280;49406;51.044;3.766;2023-01-26T09:08:51;102644.61;;;4.74;100.00
63281;BME280;49406;51.044;3.766;2023-01-26T09:11:26;102654.39;;;4.86;100.00
63281;BME280;49406;51.044;3.766;2023-01-26T09:14:00;102655.89;;;4.97;100.00
63281;BME280;49406;51.044;3.766;2023-01-26T09:16:35;102652.55;;;5.07;100.00
63281;BME280;49406;51.044;3.766;2023-01-26T09:19:09;102655.77;;;5.18;100.00
63281;BME280;49406;51.044;3.766;2023-01-26T09:21:44;102654.46;;;5.32;100.00
63281;BME280;49406;51.044;3.766;2023-01-26T09:24:18;102651.70;;;5.46;100.00
63281;BME280;49406;51.044;3.766;2023-01-26T09:26:52;102650.70;;;5.56;100.00
63281;BME280;49406;51.044;3.766;2023-01-26T09:29:27;102649.94;;;5.64;100.00
63281;BME280;49406;51.044;3.766;2023-01-26T09:32:01;102654.83;;;5.74;100.00
63281;BME280;49406;51.044;3.766;2023-01-26T09:34:36;102653.57;;;5.83;100.00
63281;BME280;49406;51.044;3.766;2023-01-26T09:37:10;102653.53;;;5.90;100.00
63281;BME280;49406;51.044;3.766;2023-01-26T09:39:44;102657.34;;;5.96;100.00
63281;BME280;49406;51.044;3.766;2023-01-26T09:42:30;102655.86;;;6.01;100.00
63281;BME280;49406;51.044;3.766;2023-01-26T09:45:17;102653.66;;;6.08;100.00
63281;BME280;49406;51.044;3.766;2023-01-26T09:48:08;102662.04;;;6.15;100.00
63281;BME280;49406;51.044;3.766;2023-01-26T09:50:49;102663.16;;;6.23;100.00
63281;BME280;49406;51.044;3.766;2023-01-26T09:53:27;102660.50;;;6.28;100.00
63281;BME280;49406;51.044;3.766;2023-01-26T09:56:07;102660.23;;;6.33;100.00
63281;BME280;49406;51.044;3.766;2023-01-26T09:58:41;102671.41;;;6.37;100.00
63281;BME280;49406;51.044;3.766;2023-01-26T10:01:23;102674.66;;;6.40;100.00
63281;BME280;49406;51.044;3.766;2023-01-26T10:04:04;102668.33;;;6.44;100.00
63281;BME280;49406;51.044;3.766;2023-01-26T10:06:44;102672.16;;;6.48;100.00
63281;BME280;49406;51.044;3.766;2023-01-26T10:09:23;102667.81;;;6.51;100.00
63281;BME280;49406;51.044;3.766;2023-01-26T10:11:59;102669.04;;;6.54;100.00
63281;BME280;49406;51.044;3.766;2023-01-26T10:14:38;102673.39;;;6.57;100.00
63281;BME280;49406;51.044;3.766;2023-01-26T10:17:16;102674.69;;;6.62;100.00
63281;BME280;49406;51.044;3.766;2023-01-26T10:19:56;102670.23;;;6.67;100.00
63281;BME280;49406;51.044;3.766;2023-01-26T10:22:39;102672.15;;;6.73;100.00
63281;BME280;49406;51.044;3.766;2023-01-26T10:25:18;102672.83;;;6.80;100.00
63281;BME280;49406;51.044;3.766;2023-01-26T10:27:53;102670.34;;;6.85;100.00
63281;BME280;49406;51.044;3.766;2023-01-26T10:30:28;102674.13;;;6.91;100.00
63281;BME280;49406;51.044;3.766;2023-01-26T10:33:04;102678.55;;;6.99;100.00
63281;BME280;49406;51.044;3.766;2023-01-26T10:35:43;102683.93;;;7.03;100.00
63281;BME280;49406;51.044;3.766;2023-01-26T10:38:39;102696.55;;;7.07;100.00
63281;BME280;49406;51.044;3.766;2023-01-26T10:41:26;102697.48;;;7.09;100.00
63281;BME280;49406;51.044;3.766;2023-01-26T10:44:02;102697.17;;;7.10;100.00
63281;BME280;49406;51.044;3.766;2023-01-26T10:46:40;102698.16;;;7.08;100.00
63281;BME280;49406;51.044;3.766;2023-01-26T10:49:16;102707.27;;;7.03;100.00
63281;BME280;49406;51.044;3.766;2023-01-26T10:52:05;102708.52;;;7.01;100.00
63281;BME280;49406;51.044;3.766;2023-01-26T10:54:40;102712.34;;;6.97;100.00
63281;BME280;49406;51.044;3.766;2023-01-26T10:57:21;102707.92;;;6.92;100.00
63281;BME280;49406;51.044;3.766;2023-01-26T11:00:03;102710.84;;;6.85;100.00
63281;BME280;49406;51.044;3.766;2023-01-26T11:02:49;102705.79;;;6.78;100.00
63281;BME280;49406;51.044;3.766;2023-01-26T11:05:25;102713.17;;;6.76;100.00
63281;BME280;49406;51.044;3.766;2023-01-26T11:08:00;102710.45;;;6.78;100.00
63281;BME280;49406;51.044;3.766;2023-01-26T11:10:36;102711.66;;;6.81;100.00
63281;BME280;49406;51.044;3.766;2023-01-26T11:13:17;102715.35;;;6.81;100.00
63281;BME280;49406;51.044;3.766;2023-01-26T11:16:03;102708.13;;;6.86;100.00
63281;BME280;49406;51.044;3.766;2023-01-26T11:18:50;102706.71;;;6.92;100.00
63281;BME280;49406;51.044;3.766;2023-01-26T11:21:31;102703.95;;;6.96;100.00
63281;BME280;49406;51.044;3.766;2023-01-26T11:24:16;102700.24;;;7.02;100.00
63281;BME280;49406;51.044;3.766;2023-01-26T11:27:13;102705.66;;;7.09;100.00
63281;BME280;49406;51.044;3.766;2023-01-26T11:30:08;102699.14;;;7.17;100.00
63281;BME280;49406;51.044;3.766;2023-01-26T11:32:54;102691.99;;;7.24;100.00
63281;BME280;49406;51.044;3.766;2023-01-26T11:35:38;102682.64;;;7.28;100.00
63281;BME280;49406;51.044;3.766;2023-01-26T11:38:26;102681.70;;;7.34;100.00
63281;BME280;49406;51.044;3.766;2023-01-26T11:41:22;102682.29;;;7.41;100.00
63281;BME280;49406;51.044;3.766;2023-01-26T11:47:43;102684.66;;;7.61;100.00
63281;BME280;49406;51.044;3.766;2023-01-26T11:50:29;102675.58;;;7.71;100.00
63281;BME280;49406;51.044;3.766;2023-01-26T11:53:10;102687.06;;;7.78;100.00
63281;BME280;49406;51.044;3.766;2023-01-26T11:56:01;102681.92;;;7.80;100.00
63281;BME280;49406;51.044;3.766;2023-01-26T11:58:43;102676.81;;;7.86;100.00
63281;BME280;49406;51.044;3.766;2023-01-26T12:01:22;102682.70;;;7.85;100.00
63281;BME280;49406;51.044;3.766;2023-01-26T12:04:01;102677.34;;;7.82;100.00
63281;BME280;49406;51.044;3.766;2023-01-26T12:06:39;102676.73;;;7.80;100.00
63281;BME280;49406;51.044;3.766;2023-01-26T12:09:18;102673.52;;;7.79;100.00
63281;BME280;49406;51.044;3.766;2023-01-26T12:11:59;102677.42;;;7.77;100.00
63281;BME280;49406;51.044;3.766;2023-01-26T12:14:39;102671.19;;;7.71;100.00
63281;BME280;49406;51.044;3.766;2023-01-26T12:17:29;102670.84;;;7.63;100.00
63281;BME280;49406;51.044;3.766;2023-01-26T12:20:22;102661.01;;;7.62;100.00
63281;BME280;49406;51.044;3.766;2023-01-26T12:23:03;102654.45;;;7.59;100.00
63281;BME280;49406;51.044;3.766;2023-01-26T12:25:40;102651.54;;;7.60;100.00
63281;BME280;49406;51.044;3.766;2023-01-26T12:28:22;102655.70;;;7.64;100.00
63281;BME280;49406;51.044;3.766;2023-01-26T12:31:01;102650.66;;;7.64;100.00
63281;BME280;49406;51.044;3.766;2023-01-26T12:33:38;102654.41;;;7.73;100.00
63281;BME280;49406;51.044;3.766;2023-01-26T12:36:23;102656.52;;;7.80;100.00
63281;BME280;49406;51.044;3.766;2023-01-26T12:39:09;102656.23;;;7.85;100.00
63281;BME280;49406;51.044;3.766;2023-01-26T12:42:08;102656.80;;;7.89;100.00
63281;BME280;49406;51.044;3.766;2023-01-26T12:44:49;102654.95;;;7.95;100.00
63281;BME280;49406;51.044;3.766;2023-01-26T12:47:29;102654.59;;;7.98;100.00
63281;BME280;49406;51.044;3.766;2023-01-26T12:50:10;102655.91;;;8.00;100.00
63281;BME280;49406;51.044;3.766;2023-01-26T12:52:52;102656.61;;;8.00;100.00
63281;BME280;49406;51.044;3.766;2023-01-26T12:55:31;102655.38;;;7.93;100.00
63281;BME280;49406;51.044;3.766;2023-01-26T12:58:11;102647.95;;;7.90;100.00
63281;BME280;49406;51.044;3.766;2023-01-26T13:00:55;102646.07;;;7.88;100.00
63281;BME280;49406;51.044;3.766;2023-01-26T13:03:34;102648.96;;;7.90;100.00
63281;BME280;49406;51.044;3.766;2023-01-26T13:06:21;102647.52;;;7.92;100.00
63281;BME280;49406;51.044;3.766;2023-01-26T13:09:17;102645.48;;;7.93;100.00
63281;BME280;49406;51.044;3.766;2023-01-26T13:11:54;102634.37;;;7.94;100.00
63281;BME280;49406;51.044;3.766;2023-01-26T13:14:34;102639.55;;;7.97;100.00
63281;BME280;49406;51.044;3.766;2023-01-26T13:26:42;102631.78;;;8.13;100.00
63281;BME280;49406;51.044;3.766;2023-01-26T13:29:32;102626.98;;;8.11;100.00
63281;BME280;49406;51.044;3.766;2023-01-26T13:35:27;102626.27;;;8.14;100.00
63281;BME280;49406;51.044;3.766;2023-01-26T13:38:09;102621.05;;;8.19;100.00
63281;BME280;49406;51.044;3.766;2023-01-26T13:40:47;102622.21;;;8.17;100.00
63281;BME280;49406;51.044;3.766;2023-01-26T13:43:33;102619.19;;;8.08;100.00
63281;BME280;49406;51.044;3.766;2023-01-26T13:46:16;102630.37;;;8.05;100.00
63281;BME280;49406;51.044;3.766;2023-01-26T13:48:53;102628.91;;;8.04;100.00
63281;BME280;49406;51.044;3.766;2023-01-26T13:51:30;102623.36;;;8.01;100.00
63281;BME280;49406;51.044;3.766;2023-01-26T13:54:06;102630.24;;;8.03;100.00
63281;BME280;49406;51.044;3.766;2023-01-26T13:57:00;102627.66;;;8.03;99.99
63281;BME280;49406;51.044;3.766;2023-01-26T13:59:48;102626.08;;;8.07;100.00
63281;BME280;49406;51.044;3.766;2023-01-26T14:02:24;102627.25;;;8.09;99.71
63281;BME280;49406;51.044;3.766;2023-01-26T14:05:00;102625.41;;;8.11;99.60